sensor_id;sensor_type;location;lat;lon;timestamp;P1;durP1;ratioP1;P2;durP2;ratioP2
3689;SDS011;1861;50.240;8.596;2022-09-17T00:01:27;6.80;;;1.73;;
3689;SDS011;1861;50.240;8.596;2022-09-17T00:03:58;5.00;;;1.40;;
3689;SDS011;1861;50.240;8.596;2022-09-17T00:06:30;5.50;;;1.70;;
3689;SDS011;1861;50.240;8.596;2022-09-17T00:08:59;1.63;;;1.53;;
3689;SDS011;1861;50.240;8.596;2022-09-17T00:11:29;2.77;;;1.43;;
3689;SDS011;1861;50.240;8.596;2022-09-17T00:13:59;3.10;;;1.30;;
3689;SDS011;1861;50.240;8.596;2022-09-17T00:16:29;2.87;;;1.57;;
3689;SDS011;1861;50.240;8.596;2022-09-17T00:19:00;2.90;;;1.97;;
3689;SDS011;1861;50.240;8.596;2022-09-17T00:21:30;4.43;;;1.37;;
3689;SDS011;1861;50.240;8.596;2022-09-17T00:24:00;5.83;;;1.60;;
3689;SDS011;1861;50.240;8.596;2022-09-17T00:26:30;5.53;;;1.20;;
3689;SDS011;1861;50.240;8.596;2022-09-17T00:29:02;3.20;;;1.40;;
3689;SDS011;1861;50.240;8.596;2022-09-17T00:31:31;5.50;;;1.80;;
3689;SDS011;1861;50.240;8.596;2022-09-17T00:34:02;4.07;;;1.30;;
3689;SDS011;1861;50.240;8.596;2022-09-17T00:36:33;4.63;;;1.40;;
3689;SDS011;1861;50.240;8.596;2022-09-17T00:39:02;2.20;;;1.70;;
3689;SDS011;1861;50.240;8.596;2022-09-17T00:41:31;5.77;;;1.63;;
3689;SDS011;1861;50.240;8.596;2022-09-17T00:44:34;4.60;;;1.43;;
3689;SDS011;1861;50.240;8.596;2022-09-17T00:47:08;5.10;;;1.50;;
3689;SDS011;1861;50.240;8.596;2022-09-17T00:49:42;4.20;;;1.60;;
3689;SDS011;1861;50.240;8.596;2022-09-17T00:52:11;1.63;;;1.10;;
3689;SDS011;1861;50.240;8.596;2022-09-17T00:54:42;2.97;;;1.40;;
3689;SDS011;1861;50.240;8.596;2022-09-17T00:57:13;7.63;;;1.67;;
3689;SDS011;1861;50.240;8.596;2022-09-17T00:59:41;7.87;;;1.67;;
3689;SDS011;1861;50.240;8.596;2022-09-17T01:02:10;4.73;;;1.57;;
3689;SDS011;1861;50.240;8.596;2022-09-17T01:04:39;4.23;;;1.30;;
3689;SDS011;1861;50.240;8.596;2022-09-17T01:07:10;1.93;;;1.50;;
3689;SDS011;1861;50.240;8.596;2022-09-17T01:09:46;5.10;;;1.40;;
3689;SDS011;1861;50.240;8.596;2022-09-17T01:12:24;5.33;;;1.50;;
3689;SDS011;1861;50.240;8.596;2022-09-17T01:15:09;1.90;;;1.27;;
3689;SDS011;1861;50.240;8.596;2022-09-17T01:17:50;5.73;;;1.47;;
3689;SDS011;1861;50.240;8.596;2022-09-17T01:23:55;1.23;;;1.13;;
3689;SDS011;1861;50.240;8.596;2022-09-17T01:27:09;5.80;;;1.40;;
3689;SDS011;1861;50.240;8.596;2022-09-17T01:30:18;3.30;;;1.40;;
3689;SDS011;1861;50.240;8.596;2022-09-17T01:32:59;4.83;;;1.83;;
3689;SDS011;1861;50.240;8.596;2022-09-17T01:35:32;4.00;;;1.70;;
3689;SDS011;1861;50.240;8.596;2022-09-17T01:38:08;6.77;;;2.20;;
3689;SDS011;1861;50.240;8.596;2022-09-17T01:40:42;4.63;;;1.30;;
3689;SDS011;1861;50.240;8.596;2022-09-17T01:43:16;2.47;;;1.67;;
3689;SDS011;1861;50.240;8.596;2022-09-17T01:45:51;3.50;;;1.47;;
3689;SDS011;1861;50.240;8.596;2022-09-17T01:48:24;3.77;;;1.70;;
3689;SDS011;1861;50.240;8.596;2022-09-17T01:50:57;5.77;;;1.93;;
3689;SDS011;1861;50.240;8.596;2022-09-17T01:53:34;4.80;;;1.37;;
3689;SDS011;1861;50.240;8.596;2022-09-17T01:56:07;7.50;;;1.70;;
3689;SDS011;1861;50.240;8.596;2022-09-17T01:58:39;11.50;;;1.63;;
3689;SDS011;1861;50.240;8.596;2022-09-17T02:01:12;1.47;;;1.37;;
3689;SDS011;1861;50.240;8.596;2022-09-17T02:03:45;2.50;;;1.13;;
3689;SDS011;1861;50.240;8.596;2022-09-17T02:06:22;10.17;;;2.00;;
3689;SDS011;1861;50.240;8.596;2022-09-17T02:08:53;4.60;;;1.60;;
3689;SDS011;1861;50.240;8.596;2022-09-17T02:11:24;3.50;;;1.50;;
3689;SDS011;1861;50.240;8.596;2022-09-17T02:13:53;5.63;;;2.37;;
3689;SDS011;1861;50.240;8.596;2022-09-17T02:16:27;2.27;;;1.30;;
3689;SDS011;1861;50.240;8.596;2022-09-17T02:18:59;2.97;;;1.30;;
3689;SDS011;1861;50.240;8.596;2022-09-17T02:21:34;1.60;;;1.50;;
3689;SDS011;1861;50.240;8.596;2022-09-17T02:24:11;3.83;;;1.80;;
3689;SDS011;1861;50.240;8.596;2022-09-17T02:26:46;3.50;;;1.50;;
3689;SDS011;1861;50.240;8.596;2022-09-17T02:29:18;2.20;;;1.27;;
3689;SDS011;1861;50.240;8.596;2022-09-17T02:31:53;3.60;;;1.23;;
3689;SDS011;1861;50.240;8.596;2022-09-17T02:34:21;2.77;;;1.70;;
3689;SDS011;1861;50.240;8.596;2022-09-17T02:36:50;2.43;;;1.60;;
3689;SDS011;1861;50.240;8.596;2022-09-17T02:39:18;2.80;;;1.20;;
3689;SDS011;1861;50.240;8.596;2022-09-17T02:41:50;3.63;;;1.13;;
3689;SDS011;1861;50.240;8.596;2022-09-17T02:44:25;3.43;;;1.13;;
3689;SDS011;1861;50.240;8.596;2022-09-17T02:47:14;1.40;;;1.00;;
3689;SDS011;1861;50.240;8.596;2022-09-17T02:49:56;1.77;;;0.83;;
3689;SDS011;1861;50.240;8.596;2022-09-17T02:52:32;1.13;;;1.03;;
3689;SDS011;1861;50.240;8.596;2022-09-17T02:55:14;1.83;;;0.70;;
3689;SDS011;1861;50.240;8.596;2022-09-17T02:57:46;1.80;;;1.03;;
3689;SDS011;1861;50.240;8.596;2022-09-17T03:00:20;1.07;;;0.97;;
3689;SDS011;1861;50.240;8.596;2022-09-17T03:02:52;0.90;;;0.87;;
3689;SDS011;1861;50.240;8.596;2022-09-17T03:05:24;2.10;;;0.90;;
3689;SDS011;1861;50.240;8.596;2022-09-17T03:07:54;1.73;;;0.80;;
3689;SDS011;1861;50.240;8.596;2022-09-17T03:10:22;1.53;;;0.90;;
3689;SDS011;1861;50.240;8.596;2022-09-17T03:12:55;1.50;;;1.00;;
3689;SDS011;1861;50.240;8.596;2022-09-17T03:15:23;3.00;;;1.00;;
3689;SDS011;1861;50.240;8.596;2022-09-17T03:17:53;3.17;;;1.23;;
3689;SDS011;1861;50.240;8.596;2022-09-17T03:20:21;1.50;;;0.90;;
3689;SDS011;1861;50.240;8.596;2022-09-17T03:22:50;0.90;;;0.80;;
3689;SDS011;1861;50.240;8.596;2022-09-17T03:25:18;1.30;;;0.80;;
3689;SDS011;1861;50.240;8.596;2022-09-17T03:27:46;1.20;;;1.10;;
3689;SDS011;1861;50.240;8.596;2022-09-17T03:30:14;1.97;;;1.00;;
3689;SDS011;1861;50.240;8.596;2022-09-17T03:32:42;2.70;;;1.20;;
3689;SDS011;1861;50.240;8.596;2022-09-17T03:35:12;1.77;;;1.00;;
3689;SDS011;1861;50.240;8.596;2022-09-17T03:37:40;0.90;;;0.90;;
3689;SDS011;1861;50.240;8.596;2022-09-17T03:40:08;1.33;;;1.00;;
3689;SDS011;1861;50.240;8.596;2022-09-17T03:42:37;1.53;;;0.90;;
3689;SDS011;1861;50.240;8.596;2022-09-17T03:45:05;2.00;;;1.20;;
3689;SDS011;1861;50.240;8.596;2022-09-17T03:47:34;1.40;;;1.00;;
3689;SDS011;1861;50.240;8.596;2022-09-17T03:50:03;1.57;;;0.73;;
3689;SDS011;1861;50.240;8.596;2022-09-17T03:52:33;1.10;;;0.80;;
3689;SDS011;1861;50.240;8.596;2022-09-17T03:55:01;1.20;;;0.80;;
3689;SDS011;1861;50.240;8.596;2022-09-17T03:57:29;1.87;;;0.80;;
3689;SDS011;1861;50.240;8.596;2022-09-17T03:59:57;1.47;;;0.90;;
3689;SDS011;1861;50.240;8.596;2022-09-17T04:02:25;1.37;;;0.70;;
3689;SDS011;1861;50.240;8.596;2022-09-17T04:04:54;0.80;;;0.77;;
3689;SDS011;1861;50.240;8.596;2022-09-17T04:07:22;1.77;;;0.70;;
3689;SDS011;1861;50.240;8.596;2022-09-17T04:09:51;1.20;;;0.83;;
3689;SDS011;1861;50.240;8.596;2022-09-17T04:12:19;0.70;;;0.60;;
3689;SDS011;1861;50.240;8.596;2022-09-17T04:14:47;0.70;;;0.70;;
3689;SDS011;1861;50.240;8.596;2022-09-17T04:17:15;0.80;;;0.60;;
3689;SDS011;1861;50.240;8.596;2022-09-17T04:19:43;1.57;;;0.90;;
3689;SDS011;1861;50.240;8.596;2022-09-17T04:22:11;4.03;;;0.90;;
3689;SDS011;1861;50.240;8.596;2022-09-17T04:24:39;4.73;;;0.90;;
3689;SDS011;1861;50.240;8.596;2022-09-17T04:27:09;3.60;;;0.90;;
3689;SDS011;1861;50.240;8.596;2022-09-17T04:29:37;1.00;;;0.90;;
3689;SDS011;1861;50.240;8.596;2022-09-17T04:32:05;4.40;;;1.00;;
3689;SDS011;1861;50.240;8.596;2022-09-17T04:34:34;3.03;;;1.33;;
3689;SDS011;1861;50.240;8.596;2022-09-17T04:37:02;3.80;;;0.93;;
3689;SDS011;1861;50.240;8.596;2022-09-17T04:39:30;3.17;;;1.13;;
3689;SDS011;1861;50.240;8.596;2022-09-17T04:41:58;1.73;;;1.07;;
3689;SDS011;1861;50.240;8.596;2022-09-17T04:44:27;6.67;;;1.50;;
3689;SDS011;1861;50.240;8.596;2022-09-17T04:46:55;1.93;;;0.97;;
3689;SDS011;1861;50.240;8.596;2022-09-17T04:49:23;2.30;;;1.10;;
3689;SDS011;1861;50.240;8.596;2022-09-17T04:51:55;3.90;;;1.13;;
3689;SDS011;1861;50.240;8.596;2022-09-17T04:54:23;1.87;;;1.20;;
3689;SDS011;1861;50.240;8.596;2022-09-17T04:56:51;2.87;;;1.10;;
3689;SDS011;1861;50.240;8.596;2022-09-17T04:59:19;5.33;;;1.60;;
3689;SDS011;1861;50.240;8.596;2022-09-17T05:01:48;2.00;;;0.83;;
3689;SDS011;1861;50.240;8.596;2022-09-17T05:04:16;2.43;;;1.00;;
3689;SDS011;1861;50.240;8.596;2022-09-17T05:06:44;6.00;;;0.90;;
3689;SDS011;1861;50.240;8.596;2022-09-17T05:09:12;5.23;;;1.20;;
3689;SDS011;1861;50.240;8.596;2022-09-17T05:11:40;4.73;;;1.10;;
3689;SDS011;1861;50.240;8.596;2022-09-17T05:14:08;2.00;;;1.60;;
3689;SDS011;1861;50.240;8.596;2022-09-17T05:16:37;1.23;;;1.00;;
3689;SDS011;1861;50.240;8.596;2022-09-17T05:19:06;4.00;;;1.10;;
3689;SDS011;1861;50.240;8.596;2022-09-17T05:21:34;3.63;;;1.17;;
3689;SDS011;1861;50.240;8.596;2022-09-17T05:24:02;4.97;;;1.23;;
3689;SDS011;1861;50.240;8.596;2022-09-17T05:26:30;4.03;;;1.20;;
3689;SDS011;1861;50.240;8.596;2022-09-17T05:28:58;2.60;;;1.10;;
3689;SDS011;1861;50.240;8.596;2022-09-17T05:31:27;6.17;;;1.40;;
3689;SDS011;1861;50.240;8.596;2022-09-17T05:33:56;10.90;;;1.37;;
3689;SDS011;1861;50.240;8.596;2022-09-17T05:36:26;3.47;;;1.63;;
3689;SDS011;1861;50.240;8.596;2022-09-17T05:38:54;4.13;;;1.33;;
3689;SDS011;1861;50.240;8.596;2022-09-17T05:41:22;2.60;;;1.50;;
3689;SDS011;1861;50.240;8.596;2022-09-17T05:43:50;5.27;;;1.40;;
3689;SDS011;1861;50.240;8.596;2022-09-17T05:46:18;2.10;;;1.30;;
3689;SDS011;1861;50.240;8.596;2022-09-17T05:48:46;2.23;;;1.17;;
3689;SDS011;1861;50.240;8.596;2022-09-17T05:51:14;3.63;;;1.10;;
3689;SDS011;1861;50.240;8.596;2022-09-17T05:53:43;2.43;;;1.10;;
3689;SDS011;1861;50.240;8.596;2022-09-17T05:56:11;1.20;;;1.10;;
3689;SDS011;1861;50.240;8.596;2022-09-17T05:58:39;4.13;;;1.63;;
3689;SDS011;1861;50.240;8.596;2022-09-17T06:01:07;7.13;;;1.87;;
3689;SDS011;1861;50.240;8.596;2022-09-17T06:03:41;6.43;;;1.43;;
3689;SDS011;1861;50.240;8.596;2022-09-17T06:06:09;2.43;;;1.83;;
3689;SDS011;1861;50.240;8.596;2022-09-17T06:08:37;2.80;;;1.40;;
3689;SDS011;1861;50.240;8.596;2022-09-17T06:11:07;4.27;;;1.83;;
3689;SDS011;1861;50.240;8.596;2022-09-17T06:13:35;3.70;;;1.43;;
3689;SDS011;1861;50.240;8.596;2022-09-17T06:16:03;2.17;;;1.37;;
3689;SDS011;1861;50.240;8.596;2022-09-17T06:18:32;7.60;;;1.50;;
3689;SDS011;1861;50.240;8.596;2022-09-17T06:21:00;4.60;;;2.17;;
3689;SDS011;1861;50.240;8.596;2022-09-17T06:23:31;4.80;;;1.90;;
3689;SDS011;1861;50.240;8.596;2022-09-17T06:26:00;4.37;;;1.50;;
3689;SDS011;1861;50.240;8.596;2022-09-17T06:28:31;7.33;;;3.77;;
3689;SDS011;1861;50.240;8.596;2022-09-17T06:31:06;3.80;;;2.47;;
3689;SDS011;1861;50.240;8.596;2022-09-17T06:33:35;7.67;;;2.40;;
3689;SDS011;1861;50.240;8.596;2022-09-17T06:36:04;6.17;;;2.10;;
3689;SDS011;1861;50.240;8.596;2022-09-17T06:38:38;5.33;;;1.60;;
3689;SDS011;1861;50.240;8.596;2022-09-17T06:41:06;4.30;;;1.70;;
3689;SDS011;1861;50.240;8.596;2022-09-17T06:43:36;8.33;;;1.83;;
3689;SDS011;1861;50.240;8.596;2022-09-17T06:46:04;4.83;;;2.23;;
3689;SDS011;1861;50.240;8.596;2022-09-17T06:48:35;3.30;;;1.90;;
3689;SDS011;1861;50.240;8.596;2022-09-17T06:51:04;7.17;;;2.20;;
3689;SDS011;1861;50.240;8.596;2022-09-17T06:53:34;9.60;;;2.10;;
3689;SDS011;1861;50.240;8.596;2022-09-17T06:56:04;5.23;;;1.93;;
3689;SDS011;1861;50.240;8.596;2022-09-17T06:58:33;5.43;;;1.93;;
3689;SDS011;1861;50.240;8.596;2022-09-17T07:01:04;6.93;;;2.20;;
3689;SDS011;1861;50.240;8.596;2022-09-17T07:03:33;4.57;;;1.83;;
3689;SDS011;1861;50.240;8.596;2022-09-17T07:06:01;3.70;;;1.77;;
3689;SDS011;1861;50.240;8.596;2022-09-17T07:08:30;9.37;;;1.87;;
3689;SDS011;1861;50.240;8.596;2022-09-17T07:11:00;4.73;;;2.00;;
3689;SDS011;1861;50.240;8.596;2022-09-17T07:13:28;5.63;;;1.70;;
3689;SDS011;1861;50.240;8.596;2022-09-17T07:15:57;6.07;;;1.80;;
3689;SDS011;1861;50.240;8.596;2022-09-17T07:18:28;8.90;;;1.63;;
3689;SDS011;1861;50.240;8.596;2022-09-17T07:20:57;4.77;;;2.20;;
3689;SDS011;1861;50.240;8.596;2022-09-17T07:23:27;4.80;;;1.80;;
3689;SDS011;1861;50.240;8.596;2022-09-17T07:25:57;3.03;;;1.60;;
3689;SDS011;1861;50.240;8.596;2022-09-17T07:28:27;6.03;;;2.20;;
3689;SDS011;1861;50.240;8.596;2022-09-17T07:30:55;5.30;;;1.87;;
3689;SDS011;1861;50.240;8.596;2022-09-17T07:33:25;7.63;;;2.23;;
3689;SDS011;1861;50.240;8.596;2022-09-17T07:35:55;2.30;;;1.43;;
3689;SDS011;1861;50.240;8.596;2022-09-17T07:38:24;5.17;;;1.97;;
3689;SDS011;1861;50.240;8.596;2022-09-17T07:40:54;7.63;;;2.00;;
3689;SDS011;1861;50.240;8.596;2022-09-17T07:43:24;8.00;;;2.37;;
3689;SDS011;1861;50.240;8.596;2022-09-17T07:45:52;9.20;;;2.30;;
3689;SDS011;1861;50.240;8.596;2022-09-17T07:48:21;5.27;;;1.97;;
3689;SDS011;1861;50.240;8.596;2022-09-17T07:50:49;6.70;;;1.60;;
3689;SDS011;1861;50.240;8.596;2022-09-17T07:53:19;3.93;;;2.30;;
3689;SDS011;1861;50.240;8.596;2022-09-17T07:55:50;5.03;;;1.60;;
3689;SDS011;1861;50.240;8.596;2022-09-17T07:58:19;9.27;;;2.33;;
3689;SDS011;1861;50.240;8.596;2022-09-17T08:00:48;10.00;;;2.10;;
3689;SDS011;1861;50.240;8.596;2022-09-17T08:03:16;6.00;;;2.23;;
3689;SDS011;1861;50.240;8.596;2022-09-17T08:05:44;4.60;;;1.67;;
3689;SDS011;1861;50.240;8.596;2022-09-17T08:08:13;3.67;;;1.50;;
3689;SDS011;1861;50.240;8.596;2022-09-17T08:10:48;2.83;;;1.53;;
3689;SDS011;1861;50.240;8.596;2022-09-17T08:13:16;1.97;;;1.70;;
3689;SDS011;1861;50.240;8.596;2022-09-17T08:15:44;1.70;;;1.50;;
3689;SDS011;1861;50.240;8.596;2022-09-17T08:18:14;4.63;;;1.50;;
3689;SDS011;1861;50.240;8.596;2022-09-17T08:20:42;3.03;;;1.33;;
3689;SDS011;1861;50.240;8.596;2022-09-17T08:23:10;5.27;;;1.47;;
3689;SDS011;1861;50.240;8.596;2022-09-17T08:25:38;6.00;;;1.33;;
3689;SDS011;1861;50.240;8.596;2022-09-17T08:28:08;2.73;;;1.40;;
3689;SDS011;1861;50.240;8.596;2022-09-17T08:30:36;4.93;;;1.57;;
3689;SDS011;1861;50.240;8.596;2022-09-17T08:33:04;7.83;;;1.57;;
3689;SDS011;1861;50.240;8.596;2022-09-17T08:35:32;3.33;;;1.50;;
3689;SDS011;1861;50.240;8.596;2022-09-17T08:38:00;3.37;;;1.10;;
3689;SDS011;1861;50.240;8.596;2022-09-17T08:40:28;6.33;;;1.60;;
3689;SDS011;1861;50.240;8.596;2022-09-17T08:42:58;5.53;;;1.63;;
3689;SDS011;1861;50.240;8.596;2022-09-17T08:45:29;1.97;;;1.00;;
3689;SDS011;1861;50.240;8.596;2022-09-17T08:47:59;7.30;;;1.73;;
3689;SDS011;1861;50.240;8.596;2022-09-17T08:50:31;6.27;;;1.27;;
3689;SDS011;1861;50.240;8.596;2022-09-17T08:53:10;9.67;;;1.93;;
3689;SDS011;1861;50.240;8.596;2022-09-17T08:55:50;3.30;;;1.47;;
3689;SDS011;1861;50.240;8.596;2022-09-17T08:58:37;4.50;;;1.57;;
3689;SDS011;1861;50.240;8.596;2022-09-17T09:01:13;6.20;;;1.43;;
3689;SDS011;1861;50.240;8.596;2022-09-17T09:03:56;3.03;;;1.27;;
3689;SDS011;1861;50.240;8.596;2022-09-17T09:06:45;3.40;;;1.40;;
3689;SDS011;1861;50.240;8.596;2022-09-17T09:09:16;1.50;;;1.07;;
3689;SDS011;1861;50.240;8.596;2022-09-17T09:11:47;2.00;;;1.10;;
3689;SDS011;1861;50.240;8.596;2022-09-17T09:14:21;6.30;;;1.77;;
3689;SDS011;1861;50.240;8.596;2022-09-17T09:16:53;2.80;;;1.43;;
3689;SDS011;1861;50.240;8.596;2022-09-17T09:19:24;2.73;;;1.37;;
3689;SDS011;1861;50.240;8.596;2022-09-17T09:22:01;1.93;;;1.30;;
3689;SDS011;1861;50.240;8.596;2022-09-17T09:24:33;2.23;;;1.87;;
3689;SDS011;1861;50.240;8.596;2022-09-17T09:27:14;2.10;;;1.40;;
3689;SDS011;1861;50.240;8.596;2022-09-17T09:29:46;4.23;;;1.60;;
3689;SDS011;1861;50.240;8.596;2022-09-17T09:32:27;4.70;;;1.80;;
3689;SDS011;1861;50.240;8.596;2022-09-17T09:35:14;8.00;;;1.50;;
3689;SDS011;1861;50.240;8.596;2022-09-17T09:37:45;4.40;;;2.33;;
3689;SDS011;1861;50.240;8.596;2022-09-17T09:40:25;3.07;;;1.50;;
3689;SDS011;1861;50.240;8.596;2022-09-17T09:42:59;3.77;;;1.30;;
3689;SDS011;1861;50.240;8.596;2022-09-17T09:45:35;2.00;;;1.30;;
3689;SDS011;1861;50.240;8.596;2022-09-17T09:48:14;3.53;;;1.47;;
3689;SDS011;1861;50.240;8.596;2022-09-17T09:50:57;3.53;;;1.50;;
3689;SDS011;1861;50.240;8.596;2022-09-17T09:53:36;8.30;;;1.70;;
3689;SDS011;1861;50.240;8.596;2022-09-17T09:56:23;1.50;;;1.10;;
3689;SDS011;1861;50.240;8.596;2022-09-17T09:59:05;3.20;;;1.10;;
3689;SDS011;1861;50.240;8.596;2022-09-17T10:01:35;2.63;;;1.40;;
3689;SDS011;1861;50.240;8.596;2022-09-17T10:04:13;5.80;;;1.20;;
3689;SDS011;1861;50.240;8.596;2022-09-17T10:06:48;5.23;;;1.27;;
3689;SDS011;1861;50.240;8.596;2022-09-17T10:09:19;1.00;;;0.90;;
3689;SDS011;1861;50.240;8.596;2022-09-17T10:12:01;2.80;;;1.20;;
3689;SDS011;1861;50.240;8.596;2022-09-17T10:14:42;2.30;;;1.10;;
3689;SDS011;1861;50.240;8.596;2022-09-17T10:17:13;1.13;;;0.90;;
3689;SDS011;1861;50.240;8.596;2022-09-17T10:22:48;3.27;;;1.17;;
3689;SDS011;1861;50.240;8.596;2022-09-17T10:25:29;1.70;;;0.90;;
3689;SDS011;1861;50.240;8.596;2022-09-17T10:27:58;1.77;;;0.90;;
3689;SDS011;1861;50.240;8.596;2022-09-17T10:30:30;2.70;;;0.90;;
3689;SDS011;1861;50.240;8.596;2022-09-17T10:33:14;2.80;;;1.23;;
3689;SDS011;1861;50.240;8.596;2022-09-17T10:35:54;3.20;;;1.10;;
3689;SDS011;1861;50.240;8.596;2022-09-17T10:38:28;2.90;;;0.80;;
3689;SDS011;1861;50.240;8.596;2022-09-17T10:41:08;1.63;;;1.00;;
3689;SDS011;1861;50.240;8.596;2022-09-17T10:43:41;6.63;;;2.90;;
3689;SDS011;1861;50.240;8.596;2022-09-17T10:46:11;2.50;;;1.00;;
3689;SDS011;1861;50.240;8.596;2022-09-17T10:48:43;3.38;;;1.17;;
3689;SDS011;1861;50.240;8.596;2022-09-17T10:51:21;1.80;;;1.07;;
3689;SDS011;1861;50.240;8.596;2022-09-17T10:53:54;6.00;;;1.43;;
3689;SDS011;1861;50.240;8.596;2022-09-17T10:56:43;3.63;;;1.40;;
3689;SDS011;1861;50.240;8.596;2022-09-17T10:59:26;1.20;;;0.90;;
3689;SDS011;1861;50.240;8.596;2022-09-17T11:02:29;1.27;;;1.03;;
3689;SDS011;1861;50.240;8.596;2022-09-17T11:05:25;6.50;;;0.80;;
3689;SDS011;1861;50.240;8.596;2022-09-17T11:08:04;5.43;;;1.57;;
3689;SDS011;1861;50.240;8.596;2022-09-17T11:10:40;2.90;;;1.10;;
3689;SDS011;1861;50.240;8.596;2022-09-17T11:13:20;3.00;;;2.03;;
3689;SDS011;1861;50.240;8.596;2022-09-17T11:16:05;2.23;;;1.30;;
3689;SDS011;1861;50.240;8.596;2022-09-17T11:18:41;2.05;;;0.90;;
3689;SDS011;1861;50.240;8.596;2022-09-17T11:21:20;2.10;;;1.00;;
3689;SDS011;1861;50.240;8.596;2022-09-17T11:27:11;4.73;;;1.10;;
3689;SDS011;1861;50.240;8.596;2022-09-17T11:30:07;6.97;;;1.27;;
3689;SDS011;1861;50.240;8.596;2022-09-17T11:32:47;2.60;;;1.20;;
3689;SDS011;1861;50.240;8.596;2022-09-17T11:35:26;3.33;;;1.20;;
3689;SDS011;1861;50.240;8.596;2022-09-17T11:38:00;1.37;;;1.00;;
3689;SDS011;1861;50.240;8.596;2022-09-17T11:40:36;1.40;;;0.80;;
3689;SDS011;1861;50.240;8.596;2022-09-17T11:43:12;1.83;;;0.80;;
3689;SDS011;1861;50.240;8.596;2022-09-17T11:45:51;1.70;;;0.63;;
3689;SDS011;1861;50.240;8.596;2022-09-17T11:48:26;2.00;;;0.60;;
3689;SDS011;1861;50.240;8.596;2022-09-17T11:51:01;1.17;;;0.80;;
3689;SDS011;1861;50.240;8.596;2022-09-17T11:53:38;4.27;;;0.80;;
3689;SDS011;1861;50.240;8.596;2022-09-17T11:56:13;0.80;;;0.60;;
3689;SDS011;1861;50.240;8.596;2022-09-17T11:58:47;1.50;;;0.90;;
3689;SDS011;1861;50.240;8.596;2022-09-17T12:01:20;3.17;;;0.70;;
3689;SDS011;1861;50.240;8.596;2022-09-17T12:03:54;5.80;;;1.10;;
3689;SDS011;1861;50.240;8.596;2022-09-17T12:06:30;1.00;;;0.70;;
3689;SDS011;1861;50.240;8.596;2022-09-17T12:09:07;3.63;;;0.80;;
3689;SDS011;1861;50.240;8.596;2022-09-17T12:11:40;1.10;;;0.60;;
3689;SDS011;1861;50.240;8.596;2022-09-17T12:14:15;2.30;;;0.90;;
3689;SDS011;1861;50.240;8.596;2022-09-17T12:16:48;2.25;;;0.65;;
3689;SDS011;1861;50.240;8.596;2022-09-17T12:19:21;1.30;;;0.70;;
3689;SDS011;1861;50.240;8.596;2022-09-17T12:21:54;2.77;;;1.27;;
3689;SDS011;1861;50.240;8.596;2022-09-17T12:24:25;3.27;;;0.70;;
3689;SDS011;1861;50.240;8.596;2022-09-17T12:26:58;0.80;;;0.70;;
3689;SDS011;1861;50.240;8.596;2022-09-17T12:29:35;3.43;;;0.70;;
3689;SDS011;1861;50.240;8.596;2022-09-17T12:32:40;3.20;;;1.03;;
3689;SDS011;1861;50.240;8.596;2022-09-17T12:35:17;6.50;;;0.70;;
3689;SDS011;1861;50.240;8.596;2022-09-17T12:38:18;2.40;;;0.80;;
3689;SDS011;1861;50.240;8.596;2022-09-17T12:40:57;4.30;;;0.80;;
3689;SDS011;1861;50.240;8.596;2022-09-17T12:43:35;2.55;;;0.68;;
3689;SDS011;1861;50.240;8.596;2022-09-17T12:46:17;3.73;;;0.90;;
3689;SDS011;1861;50.240;8.596;2022-09-17T12:51:55;2.15;;;0.73;;
3689;SDS011;1861;50.240;8.596;2022-09-17T12:54:35;2.90;;;0.60;;
3689;SDS011;1861;50.240;8.596;2022-09-17T12:57:16;3.73;;;0.73;;
3689;SDS011;1861;50.240;8.596;2022-09-17T12:59:57;1.37;;;0.80;;
3689;SDS011;1861;50.240;8.596;2022-09-17T13:02:35;1.13;;;0.63;;
3689;SDS011;1861;50.240;8.596;2022-09-17T13:14:32;0.70;;;0.50;;
3689;SDS011;1861;50.240;8.596;2022-09-17T13:17:18;1.87;;;0.60;;
3689;SDS011;1861;50.240;8.596;2022-09-17T13:19:54;0.90;;;0.60;;
3689;SDS011;1861;50.240;8.596;2022-09-17T13:22:28;1.37;;;0.77;;
3689;SDS011;1861;50.240;8.596;2022-09-17T13:25:00;4.20;;;0.70;;
3689;SDS011;1861;50.240;8.596;2022-09-17T13:27:31;2.13;;;0.70;;
3689;SDS011;1861;50.240;8.596;2022-09-17T13:30:00;1.50;;;0.60;;
3689;SDS011;1861;50.240;8.596;2022-09-17T13:32:43;3.23;;;0.80;;
3689;SDS011;1861;50.240;8.596;2022-09-17T13:38:18;2.87;;;1.00;;
3689;SDS011;1861;50.240;8.596;2022-09-17T13:40:50;2.70;;;0.70;;
3689;SDS011;1861;50.240;8.596;2022-09-17T13:43:19;1.40;;;0.80;;
3689;SDS011;1861;50.240;8.596;2022-09-17T13:46:08;4.70;;;1.13;;
3689;SDS011;1861;50.240;8.596;2022-09-17T13:48:47;2.50;;;0.80;;
3689;SDS011;1861;50.240;8.596;2022-09-17T13:54:16;1.83;;;0.50;;
3689;SDS011;1861;50.240;8.596;2022-09-17T13:56:48;1.43;;;0.67;;
3689;SDS011;1861;50.240;8.596;2022-09-17T13:59:32;0.70;;;0.50;;
3689;SDS011;1861;50.240;8.596;2022-09-17T14:08:22;0.90;;;0.47;;
3689;SDS011;1861;50.240;8.596;2022-09-17T14:10:56;3.57;;;0.70;;
3689;SDS011;1861;50.240;8.596;2022-09-17T14:13:27;1.00;;;0.53;;
3689;SDS011;1861;50.240;8.596;2022-09-17T14:21:56;0.70;;;0.50;;
3689;SDS011;1861;50.240;8.596;2022-09-17T14:24:31;1.40;;;0.67;;
3689;SDS011;1861;50.240;8.596;2022-09-17T14:30:13;1.90;;;0.77;;
3689;SDS011;1861;50.240;8.596;2022-09-17T14:32:47;1.57;;;0.60;;
3689;SDS011;1861;50.240;8.596;2022-09-17T14:35:25;5.80;;;1.13;;
3689;SDS011;1861;50.240;8.596;2022-09-17T14:37:58;4.77;;;0.70;;
3689;SDS011;1861;50.240;8.596;2022-09-17T14:40:31;1.83;;;0.60;;
3689;SDS011;1861;50.240;8.596;2022-09-17T14:43:00;0.70;;;0.50;;
3689;SDS011;1861;50.240;8.596;2022-09-17T14:45:30;0.90;;;0.50;;
3689;SDS011;1861;50.240;8.596;2022-09-17T14:50:52;2.50;;;0.60;;
3689;SDS011;1861;50.240;8.596;2022-09-17T14:53:45;1.07;;;0.40;;
3689;SDS011;1861;50.240;8.596;2022-09-17T14:56:16;1.13;;;0.57;;
3689;SDS011;1861;50.240;8.596;2022-09-17T14:58:47;2.37;;;0.50;;
3689;SDS011;1861;50.240;8.596;2022-09-17T15:01:21;2.10;;;0.50;;
3689;SDS011;1861;50.240;8.596;2022-09-17T15:06:37;3.05;;;0.60;;
3689;SDS011;1861;50.240;8.596;2022-09-17T15:09:10;1.52;;;0.60;;
3689;SDS011;1861;50.240;8.596;2022-09-17T15:11:43;2.00;;;0.70;;
3689;SDS011;1861;50.240;8.596;2022-09-17T15:14:15;1.52;;;0.80;;
3689;SDS011;1861;50.240;8.596;2022-09-17T15:16:46;2.33;;;0.60;;
3689;SDS011;1861;50.240;8.596;2022-09-17T15:19:21;1.10;;;1.00;;
3689;SDS011;1861;50.240;8.596;2022-09-17T15:21:51;1.70;;;0.60;;
3689;SDS011;1861;50.240;8.596;2022-09-17T15:24:22;1.70;;;0.60;;
3689;SDS011;1861;50.240;8.596;2022-09-17T15:27:02;1.57;;;0.70;;
3689;SDS011;1861;50.240;8.596;2022-09-17T15:29:36;1.65;;;0.65;;
3689;SDS011;1861;50.240;8.596;2022-09-17T15:32:08;0.90;;;0.50;;
3689;SDS011;1861;50.240;8.596;2022-09-17T15:34:38;1.33;;;0.73;;
3689;SDS011;1861;50.240;8.596;2022-09-17T15:37:09;0.80;;;0.63;;
3689;SDS011;1861;50.240;8.596;2022-09-17T15:39:46;0.70;;;0.60;;
3689;SDS011;1861;50.240;8.596;2022-09-17T15:42:19;1.25;;;0.50;;
3689;SDS011;1861;50.240;8.596;2022-09-17T15:44:50;1.67;;;0.50;;
3689;SDS011;1861;50.240;8.596;2022-09-17T15:47:34;2.10;;;0.60;;
3689;SDS011;1861;50.240;8.596;2022-09-17T15:50:17;0.60;;;0.40;;
3689;SDS011;1861;50.240;8.596;2022-09-17T15:52:47;1.53;;;0.50;;
3689;SDS011;1861;50.240;8.596;2022-09-17T15:55:25;0.60;;;0.40;;
3689;SDS011;1861;50.240;8.596;2022-09-17T15:57:59;0.97;;;0.50;;
3689;SDS011;1861;50.240;8.596;2022-09-17T16:00:29;0.90;;;0.50;;
3689;SDS011;1861;50.240;8.596;2022-09-17T16:03:01;0.90;;;0.50;;
3689;SDS011;1861;50.240;8.596;2022-09-17T16:12:04;0.70;;;0.50;;
3689;SDS011;1861;50.240;8.596;2022-09-17T16:14:34;0.70;;;0.50;;
3689;SDS011;1861;50.240;8.596;2022-09-17T16:17:13;1.33;;;0.50;;
3689;SDS011;1861;50.240;8.596;2022-09-17T16:20:07;1.20;;;0.60;;
3689;SDS011;1861;50.240;8.596;2022-09-17T16:22:40;1.37;;;0.50;;
3689;SDS011;1861;50.240;8.596;2022-09-17T16:25:08;1.00;;;0.60;;
3689;SDS011;1861;50.240;8.596;2022-09-17T16:27:39;1.70;;;0.60;;
3689;SDS011;1861;50.240;8.596;2022-09-17T16:30:14;2.43;;;0.60;;
3689;SDS011;1861;50.240;8.596;2022-09-17T16:32:43;2.00;;;0.77;;
3689;SDS011;1861;50.240;8.596;2022-09-17T16:35:12;1.00;;;0.50;;
3689;SDS011;1861;50.240;8.596;2022-09-17T16:37:43;2.20;;;0.70;;
3689;SDS011;1861;50.240;8.596;2022-09-17T16:40:14;2.03;;;0.60;;
3689;SDS011;1861;50.240;8.596;2022-09-17T16:42:43;3.72;;;0.57;;
3689;SDS011;1861;50.240;8.596;2022-09-17T16:45:13;2.60;;;0.80;;
3689;SDS011;1861;50.240;8.596;2022-09-17T16:47:42;2.20;;;0.80;;